createdAt,value
2023-05-07T00:00:58.488Z,67.8571
2023-05-07T00:01:59.676Z,67.6429
2023-05-07T00:03:00.370Z,67.6429
2023-05-07T00:04:00.584Z,67.7143
2023-05-07T00:05:01.425Z,67.6429
2023-05-07T00:06:01.920Z,67.5714
2023-05-07T00:07:03.233Z,67.5714
2023-05-07T00:08:04.273Z,67.5714
2023-05-07T00:09:04.307Z,67.6429
2023-05-07T00:10:06.014Z,67.6429
2023-05-07T00:11:06.385Z,67.5714
2023-05-07T00:12:07.226Z,67.6429
2023-05-07T00:13:06.912Z,67.7143
2023-05-07T00:14:08.742Z,67.7143
2023-05-07T00:15:09.596Z,67.7143
2023-05-07T00:16:10.596Z,67.7857
2023-05-07T00:17:10.979Z,67.5714
2023-05-07T00:18:11.255Z,67.3571
2023-05-07T00:19:11.967Z,67.2143
2023-05-07T00:20:12.872Z,67.2857
2023-05-07T00:21:13.222Z,67.2857
2023-05-07T00:22:14.553Z,67.2143
2023-05-07T00:23:14.760Z,67.2857
2023-05-07T00:24:14.894Z,67.1429
2023-05-07T00:25:14.962Z,67.0714
2023-05-07T00:26:15.502Z,67.0714
2023-05-07T00:27:16.844Z,67.1429
2023-05-07T00:28:17.381Z,67.1429
2023-05-07T00:29:17.425Z,67.1429
2023-05-07T00:30:17.812Z,67.1429
2023-05-07T00:31:19.222Z,67.0714
2023-05-07T00:32:19.994Z,66.9286
2023-05-07T00:33:21.148Z,67
2023-05-07T00:34:21.536Z,67
2023-05-07T00:35:22.423Z,67.1429
2023-05-07T00:36:22.580Z,67.1429
2023-05-07T00:37:23.279Z,67.1429
2023-05-07T00:38:24.117Z,67.1429
2023-05-07T00:39:24.935Z,67.2143
2023-05-07T00:40:26.294Z,67.1429
2023-05-07T00:41:27.011Z,67.1429
2023-05-07T00:42:27.857Z,67.1429
2023-05-07T00:43:28.719Z,66.9286
2023-05-07T00:44:30.177Z,66.8571
2023-05-07T00:45:30.956Z,66.9286
2023-05-07T00:46:31.826Z,66.6429
2023-05-07T00:47:33.564Z,66.5714
2023-05-07T00:48:33.966Z,66.7857
2023-05-07T00:49:35.552Z,66.5714
2023-05-07T00:50:37.730Z,66.4286
2023-05-07T00:51:38.790Z,66.2143
2023-05-07T00:52:39.515Z,66.0714
2023-05-07T00:53:41.132Z,66
2023-05-07T00:54:42.526Z,66.2143
2023-05-07T00:55:42.107Z,66.2143
2023-05-07T00:56:44.591Z,66.2143
2023-05-07T00:57:44.914Z,66.0714
2023-05-07T00:58:46.504Z,66
2023-05-07T00:59:48.463Z,66
2023-05-07T01:00:49.476Z,65.7857
2023-05-07T01:01:50.223Z,65.5714
2023-05-07T01:02:50.342Z,65.5
2023-05-07T01:03:51.884Z,65.3571
2023-05-07T01:04:53.350Z,65.4286
2023-05-07T01:05:54.858Z,65.5
2023-05-07T01:06:55.240Z,65.5
2023-05-07T01:07:57.339Z,65.5714
2023-05-07T01:08:58.566Z,65.6429
2023-05-07T01:09:59.495Z,65.7857
2023-05-07T01:11:01.143Z,65.9286
2023-05-07T01:12:02.455Z,66.1429
2023-05-07T01:13:02.955Z,66
2023-05-07T01:14:03.304Z,66
2023-05-07T01:15:04.526Z,66.0714
2023-05-07T01:16:05.016Z,66.2143
2023-05-07T01:17:05.119Z,66.0714
2023-05-07T01:18:05.481Z,66.2143
2023-05-07T01:19:05.496Z,66.2143
2023-05-07T01:20:05.807Z,66.2143
2023-05-07T01:21:05.812Z,66.2857
2023-05-07T01:22:07.429Z,66.2857
2023-05-07T01:23:07.671Z,66.2857
2023-05-07T01:24:09.654Z,66.2857
2023-05-07T01:25:10.129Z,66.3571
2023-05-07T01:26:10.601Z,66.2857
2023-05-07T01:27:12.364Z,66.3571
2023-05-07T01:28:13.003Z,66.2857
2023-05-07T01:29:13.550Z,66.3571
2023-05-07T01:30:15.250Z,66.3571
2023-05-07T01:31:16.636Z,66.3571
2023-05-07T01:32:17.587Z,66.3571
2023-05-07T01:33:17.795Z,66.2857
2023-05-07T01:34:18.558Z,66.2143
2023-05-07T01:35:19.993Z,66.1429
2023-05-07T01:36:20.612Z,66.1429
2023-05-07T01:37:21.733Z,66.2143
2023-05-07T01:38:23.326Z,66.0714
2023-05-07T01:39:24.541Z,66.1429
2023-05-07T01:40:25.939Z,66.2857
2023-05-07T01:41:26.343Z,66.1429
2023-05-07T01:42:26.404Z,66.0714
2023-05-07T01:43:27.118Z,66
2023-05-07T01:44:27.632Z,66
2023-05-07T01:45:28.341Z,66.0714
2023-05-07T01:46:28.588Z,66
2023-05-07T01:47:29.720Z,66
2023-05-07T01:48:30.192Z,66.0714
2023-05-07T01:49:31.157Z,66.2143
2023-05-07T01:50:32.268Z,66.0714
2023-05-07T01:51:32.449Z,65.9286
2023-05-07T01:52:33.958Z,66.1429
2023-05-07T01:53:34.798Z,66.1429
2023-05-07T01:54:35.695Z,66
2023-05-07T01:55:36.803Z,65.9286
2023-05-07T01:56:38.571Z,65.9286
2023-05-07T01:57:40.791Z,66
2023-05-07T01:58:41.481Z,66.0714
2023-05-07T01:59:43.217Z,66.1429
2023-05-07T02:00:45.005Z,66.1429
2023-05-07T02:01:44.914Z,66.2857
2023-05-07T02:02:47.199Z,66.1429
2023-05-07T02:03:48.244Z,66.2857
2023-05-07T02:04:49.862Z,66.2857
2023-05-07T02:05:50.536Z,66.2143
2023-05-07T02:06:51.676Z,66.0714
2023-05-07T02:07:52.584Z,65.8571
2023-05-07T02:08:53.592Z,65.7857
2023-05-07T02:09:54.502Z,65.8571
2023-05-07T02:10:54.670Z,65.9286
2023-05-07T02:11:55.392Z,65.7857
2023-05-07T02:12:55.975Z,65.9286
2023-05-07T02:13:56.538Z,65.7857
2023-05-07T02:14:57.109Z,65.9286
2023-05-07T02:15:57.488Z,65.9286
2023-05-07T02:16:58.251Z,65.9286
2023-05-07T02:17:59.253Z,65.7857
2023-05-07T02:19:00.298Z,65.7857
2023-05-07T02:20:02.080Z,65.8571
2023-05-07T02:21:02.271Z,65.7857
2023-05-07T02:22:02.587Z,65.7143
2023-05-07T02:23:03.080Z,65.6429
2023-05-07T02:24:03.346Z,65.5714
2023-05-07T02:25:04.372Z,65.4286
2023-05-07T02:26:05.453Z,65.2143
2023-05-07T02:27:07.332Z,65.0714
2023-05-07T02:28:08.026Z,65.0714
2023-05-07T02:29:08.894Z,65
2023-05-07T02:30:11.043Z,65
2023-05-07T02:31:12.386Z,65.1429
2023-05-07T02:32:13.773Z,65.1429
2023-05-07T02:33:13.866Z,65
2023-05-07T02:34:14.296Z,65
2023-05-07T02:35:15.689Z,65.0714
2023-05-07T02:36:16.708Z,65.2143
2023-05-07T02:37:18.044Z,65.2857
2023-05-07T02:38:18.122Z,65.2143
2023-05-07T02:39:20.215Z,65.2857
2023-05-07T02:40:20.564Z,65.3571
2023-05-07T02:41:21.355Z,65.2143
2023-05-07T02:42:22.974Z,65.2857
2023-05-07T02:43:22.600Z,65.3571
2023-05-07T02:44:23.620Z,65.3571
2023-05-07T02:45:24.275Z,65.2857
2023-05-07T02:46:25.315Z,65.2857
2023-05-07T02:47:26.759Z,65.2857
2023-05-07T02:48:28.088Z,65.2857
2023-05-07T02:49:27.374Z,65.5
2023-05-07T02:50:28.618Z,65.5
2023-05-07T02:51:30.294Z,65.5714
2023-05-07T02:52:30.240Z,65.4286
2023-05-07T02:53:31.149Z,65.5
2023-05-07T02:54:32.595Z,65.6429
2023-05-07T02:55:33.601Z,65.6429
2023-05-07T02:56:34.869Z,65.8571
2023-05-07T02:57:37.044Z,65.7143
2023-05-07T02:58:37.852Z,65.7143
2023-05-07T02:59:38.227Z,65.7143
2023-05-07T03:00:40.060Z,65.6429
2023-05-07T03:01:41.173Z,65.6429
2023-05-07T03:02:42.599Z,65.7143
2023-05-07T03:03:43.577Z,65.7857
2023-05-07T03:04:44.350Z,65.7857
2023-05-07T03:05:46.225Z,65.9286
2023-05-07T03:06:46.971Z,65.7857
2023-05-07T03:07:46.830Z,65.7857
2023-05-07T03:08:48.423Z,65.8571
2023-05-07T03:09:49.135Z,65.9286
2023-05-07T03:10:49.305Z,65.9286
2023-05-07T03:11:49.634Z,65.9286
2023-05-07T03:12:51.035Z,65.9286
2023-05-07T03:13:51.283Z,65.9286
2023-05-07T03:14:52.642Z,65.9286
2023-05-07T03:15:53.533Z,65.9286
2023-05-07T03:16:54.118Z,66
2023-05-07T03:17:55.597Z,66
2023-05-07T03:18:56.648Z,66.0714
2023-05-07T03:19:56.765Z,66.0714
2023-05-07T03:20:57.079Z,66
2023-05-07T03:21:57.143Z,66
2023-05-07T03:22:58.076Z,65.9286
2023-05-07T03:23:59.089Z,65.9286
2023-05-07T03:25:00.740Z,66.0714
2023-05-07T03:26:01.017Z,66.1429
2023-05-07T03:27:00.947Z,66
2023-05-07T03:28:02.269Z,66.0714
2023-05-07T03:29:03.551Z,66.0714
2023-05-07T03:30:03.773Z,66.0714
2023-05-07T03:31:04.865Z,65.9286
2023-05-07T03:32:05.440Z,65.7857
2023-05-07T03:33:06.507Z,65.8571
2023-05-07T03:34:06.996Z,65.7857
2023-05-07T03:35:08.795Z,65.8571
2023-05-07T03:36:09.593Z,65.8571
2023-05-07T03:37:11.076Z,65.6429
2023-05-07T03:38:11.503Z,65.6429
2023-05-07T03:39:11.919Z,65.4286
2023-05-07T03:40:13.997Z,65.2857
2023-05-07T03:41:14.072Z,65.2143
2023-05-07T03:42:15.191Z,65.3571
2023-05-07T03:43:15.823Z,65.4286
2023-05-07T03:44:17.435Z,65.2143
2023-05-07T03:45:17.984Z,65.0714
2023-05-07T03:46:19.197Z,65
2023-05-07T03:47:20.443Z,65
2023-05-07T03:48:21.194Z,65
2023-05-07T03:49:21.864Z,65.0714
2023-05-07T03:50:23.726Z,65.2857
2023-05-07T03:51:24.449Z,65.5
2023-05-07T03:52:25.733Z,65.3571
2023-05-07T03:53:25.788Z,65.2143
2023-05-07T03:54:27.080Z,65.2143
2023-05-07T03:55:28.287Z,65.2857
2023-05-07T03:56:28.913Z,65.4286
2023-05-07T03:57:30.124Z,65.3571
2023-05-07T03:58:30.571Z,65.0714
2023-05-07T03:59:32.234Z,64.9286
2023-05-07T04:00:33.333Z,64.8571
2023-05-07T04:01:34.358Z,64.8571
2023-05-07T04:02:35.200Z,64.8571
2023-05-07T04:03:36.649Z,64.7857
2023-05-07T04:04:37.827Z,64.8571
2023-05-07T04:05:38.331Z,64.9286
2023-05-07T04:06:39.607Z,64.5714
2023-05-07T04:07:40.367Z,64.2857
2023-05-07T04:08:42.566Z,64.2143
2023-05-07T04:09:43.018Z,64.2143
2023-05-07T04:10:43.907Z,64.4286
2023-05-07T04:11:44.139Z,64.5
2023-05-07T04:12:45.864Z,64.5714
2023-05-07T04:13:46.681Z,64.5
2023-05-07T04:14:46.509Z,64.3571
2023-05-07T04:15:47.990Z,64.3571
2023-05-07T04:16:48.198Z,64.5
2023-05-07T04:17:48.842Z,64.6429
2023-05-07T04:18:49.270Z,64.7143
2023-05-07T04:19:51.021Z,64.7857
2023-05-07T04:20:51.633Z,64.7143
2023-05-07T04:21:52.160Z,64.7143
2023-05-07T04:22:53.784Z,64.8571
2023-05-07T04:23:55.132Z,64.7857
2023-05-07T04:24:55.589Z,64.4286
2023-05-07T04:25:57.211Z,64.1429
2023-05-07T04:26:58.044Z,64.1429
2023-05-07T04:27:58.960Z,64
2023-05-07T04:28:59.059Z,63.9286
2023-05-07T04:30:00.534Z,63.9286
2023-05-07T04:31:01.078Z,63.9286
2023-05-07T04:32:02.118Z,63.9286
2023-05-07T04:33:03.123Z,63.9286
2023-05-07T04:34:03.206Z,64.1429
2023-05-07T04:35:04.411Z,64.0714
2023-05-07T04:36:05.332Z,64.1429
2023-05-07T04:37:05.398Z,64.1429
2023-05-07T04:38:06.556Z,64.0714
2023-05-07T04:39:07.703Z,64.0714
2023-05-07T04:40:08.210Z,64.1429
2023-05-07T04:41:08.922Z,64.1429
2023-05-07T04:42:10.281Z,64.0714
2023-05-07T04:43:10.508Z,64
2023-05-07T04:44:11.327Z,64.0714
2023-05-07T04:45:12.737Z,64.1429
2023-05-07T04:46:13.094Z,64.1429
2023-05-07T04:47:14.024Z,64.1429
2023-05-07T04:48:15.298Z,64.2143
2023-05-07T04:49:15.095Z,64.0714
2023-05-07T04:50:16.036Z,64.1429
2023-05-07T04:51:17.303Z,64.2143
2023-05-07T04:52:17.363Z,64.2857
2023-05-07T04:53:17.834Z,64.2143
2023-05-07T04:54:18.342Z,64.2857
2023-05-07T04:55:19.275Z,64.2857
2023-05-07T04:56:19.542Z,64.2857
2023-05-07T04:57:20.755Z,64.2143
2023-05-07T04:58:19.715Z,64.2143
2023-05-07T04:59:21.867Z,64.3571
2023-05-07T05:00:22.240Z,64.5
2023-05-07T05:01:23.458Z,64.4286
2023-05-07T05:02:23.868Z,64.3571
2023-05-07T05:03:25.687Z,64.3571
2023-05-07T05:04:27.365Z,64.2857
2023-05-07T05:05:27.483Z,64.2857
2023-05-07T05:06:28.458Z,64.0714
2023-05-07T05:07:30.905Z,64
2023-05-07T05:08:32.525Z,64.0714
2023-05-07T05:09:32.861Z,64
2023-05-07T05:10:32.867Z,63.9286
2023-05-07T05:11:33.049Z,63.6429
2023-05-07T05:12:33.578Z,63.4286
2023-05-07T05:13:33.102Z,63.4286
2023-05-07T05:14:34.994Z,63.3571
2023-05-07T05:15:35.113Z,63.4286
2023-05-07T05:16:35.354Z,63.6429
2023-05-07T05:17:36.344Z,63.8571
2023-05-07T05:18:38.130Z,64.0714
2023-05-07T05:19:38.207Z,64.1429
2023-05-07T05:20:40.727Z,63.7143
2023-05-07T05:21:39.900Z,63.6429
2023-05-07T05:22:41.653Z,63.7143
2023-05-07T05:23:42.169Z,63.7857
2023-05-07T05:24:43.622Z,63.7143
2023-05-07T05:25:45.213Z,63.7857
2023-05-07T05:26:46.156Z,63.6429
2023-05-07T05:27:48.179Z,63.4286
2023-05-07T05:28:47.660Z,63.4286
2023-05-07T05:29:47.798Z,63.5714
2023-05-07T05:30:50.001Z,63.5
2023-05-07T05:31:49.665Z,63.5
2023-05-07T05:32:50.070Z,63.5
2023-05-07T05:33:50.942Z,63.5714
2023-05-07T05:34:50.886Z,63.4286
2023-05-07T05:35:51.851Z,63.0714
2023-05-07T05:36:51.876Z,62.7857
2023-05-07T05:37:53.592Z,62.3571
2023-05-07T05:38:54.595Z,62.4286
2023-05-07T05:39:56.455Z,62.4286
2023-05-07T05:40:56.854Z,62.5714
2023-05-07T05:41:56.756Z,62.5
2023-05-07T05:42:56.742Z,62.5714
2023-05-07T05:43:56.958Z,62.7143
2023-05-07T05:44:58.944Z,62.6429
2023-05-07T05:46:01.202Z,62.5714
2023-05-07T05:47:01.346Z,62.6429
2023-05-07T05:48:03.059Z,62.7143
2023-05-07T05:49:05.219Z,62.8571
2023-05-07T05:50:06.972Z,62.7143
2023-05-07T05:51:08.560Z,62.7143
2023-05-07T05:52:11.417Z,62.7143
2023-05-07T05:53:11.678Z,62.6429
2023-05-07T05:54:12.480Z,62.2143
2023-05-07T05:55:13.322Z,62
2023-05-07T05:56:14.672Z,61.8571
2023-05-07T05:57:16.223Z,62
2023-05-07T05:58:16.972Z,62.1429
2023-05-07T05:59:18.546Z,61.9286
2023-05-07T06:00:19.934Z,61.8571
2023-05-07T06:01:21.805Z,61.9286
2023-05-07T06:02:23.205Z,61.6429
2023-05-07T06:03:25.296Z,61.4286
2023-05-07T06:04:26.186Z,61.1429
2023-05-07T06:05:28.945Z,61.2857
2023-05-07T06:06:30.267Z,61.0714
2023-05-07T06:07:30.523Z,60.6429
2023-05-07T06:08:32.040Z,60.7857
2023-05-07T06:09:34.653Z,60.2857
2023-05-07T06:10:33.502Z,59.7857
2023-05-07T06:11:35.780Z,59.5
2023-05-07T06:12:37.790Z,58.3571
2023-05-07T06:13:40.034Z,57.5714
2023-05-07T06:14:40.400Z,57.2143
2023-05-07T06:15:41.452Z,57
2023-05-07T06:16:42.819Z,56.9286
2023-05-07T06:17:44.295Z,56.7143
2023-05-07T06:18:45.863Z,56.6429
2023-05-07T06:19:46.887Z,56.8571
2023-05-07T06:20:47.458Z,57
2023-05-07T06:21:49.001Z,56.7143
2023-05-07T06:22:51.576Z,56.8571
2023-05-07T06:23:53.704Z,57.0714
2023-05-07T06:24:55.034Z,56.7143
2023-05-07T06:25:55.428Z,56.7143
2023-05-07T06:26:56.145Z,56.5714
2023-05-07T06:27:56.619Z,56.6429
2023-05-07T06:28:58.113Z,56.9286
2023-05-07T06:29:58.859Z,56.7857
2023-05-07T06:30:59.569Z,56.9286
2023-05-07T06:32:00.459Z,56.7143
2023-05-07T06:33:01.970Z,56.7857
2023-05-07T06:34:03.335Z,56.5714
2023-05-07T06:35:04.527Z,56.9286
2023-05-07T06:36:06.616Z,56.8571
2023-05-07T06:37:07.487Z,56.9286
2023-05-07T06:38:07.056Z,56.8571
2023-05-07T06:39:09.182Z,56.5
2023-05-07T06:40:10.940Z,56.6429
2023-05-07T06:41:11.299Z,56.6429
2023-05-07T06:42:13.486Z,56.1429
2023-05-07T06:43:14.362Z,56.0714
2023-05-07T06:44:16.441Z,56.0714
2023-05-07T06:45:19.077Z,55.7143
2023-05-07T06:46:21.351Z,55.6429
2023-05-07T06:47:22.362Z,55.4286
2023-05-07T06:48:23.845Z,55
2023-05-07T06:49:23.493Z,55.2143
2023-05-07T06:50:26.458Z,55.2857
2023-05-07T06:51:27.344Z,55.3571
2023-05-07T06:52:26.825Z,55.3571
2023-05-07T06:53:26.761Z,54.9286
2023-05-07T06:54:29.710Z,55.1429
2023-05-07T06:55:30.146Z,54.7143
2023-05-07T06:56:30.521Z,54.2857
2023-05-07T06:57:32.093Z,54.7857
2023-05-07T06:58:31.217Z,54.6429
2023-05-07T06:59:32.286Z,53.7857
2023-05-07T07:00:33.834Z,53.4286
2023-05-07T07:01:34.419Z,53.0714
2023-05-07T07:02:34.538Z,53
2023-05-07T07:03:34.608Z,53.3571
2023-05-07T07:04:34.667Z,53.1429
2023-05-07T07:05:36.089Z,53.5
2023-05-07T07:06:35.660Z,53.2857
2023-05-07T07:07:35.909Z,53.5
2023-05-07T07:08:37.648Z,54.0714
2023-05-07T07:09:38.006Z,54.2143
2023-05-07T07:10:40.741Z,54.5
2023-05-07T07:11:41.394Z,53.8571
2023-05-07T07:12:42.440Z,53.9286
2023-05-07T07:13:42.630Z,53.5714
2023-05-07T07:14:42.801Z,53.4286
2023-05-07T07:15:44.553Z,53
2023-05-07T07:16:44.819Z,52.4286
2023-05-07T07:17:46.578Z,52.2857
2023-05-07T07:18:48.612Z,52.0714
2023-05-07T07:19:49.229Z,52.2857
2023-05-07T07:20:51.719Z,52.2857
2023-05-07T07:21:51.588Z,52.2857
2023-05-07T07:22:52.387Z,52.5
2023-05-07T07:23:54.003Z,52.5714
2023-05-07T07:24:54.483Z,52.5714
2023-05-07T07:25:53.575Z,51.1429
2023-05-07T07:26:55.093Z,50.5
2023-05-07T07:27:55.486Z,50.2143
2023-05-07T07:28:57.497Z,50.4286
2023-05-07T07:29:58.228Z,50.3571
2023-05-07T07:31:00.646Z,50.1429
2023-05-07T07:33:02.300Z,49.8571
2023-05-07T07:34:03.613Z,49.0714
2023-05-07T07:35:06.011Z,49
2023-05-07T07:36:06.452Z,48.2857
2023-05-07T07:37:06.744Z,47.5714
2023-05-07T07:38:07.995Z,46.0714
2023-05-07T07:39:08.764Z,45.5
2023-05-07T07:40:09.730Z,44.1429
2023-05-07T07:41:11.458Z,42.9286
2023-05-07T07:42:11.475Z,42.7143
2023-05-07T07:43:12.386Z,42.2857
2023-05-07T07:44:15.418Z,42.3571
2023-05-07T07:45:14.202Z,41.9286
2023-05-07T07:46:14.913Z,41.3571
2023-05-07T07:47:16.515Z,40.7857
2023-05-07T07:48:17.910Z,41.2143
2023-05-07T07:49:19.337Z,41.4286
2023-05-07T07:50:28.747Z,42.4286
2023-05-07T07:51:20.663Z,42.8571
2023-05-07T07:52:21.609Z,43.3571
2023-05-07T07:53:21.902Z,43
2023-05-07T07:54:22.438Z,43.5
2023-05-07T07:55:24.073Z,43.8571
2023-05-07T07:56:25.242Z,43.7143
2023-05-07T07:57:25.436Z,43.9286
2023-05-07T07:58:26.219Z,44.1429
2023-05-07T07:59:27.766Z,45.2857
2023-05-07T08:00:28.504Z,44.5714
2023-05-07T08:01:29.384Z,44.2857
2023-05-07T08:02:30.265Z,43.7857
2023-05-07T08:03:31.298Z,43.8571
2023-05-07T08:04:31.149Z,43.8571
2023-05-07T08:05:32.609Z,44.2143
2023-05-07T08:06:34.017Z,44
2023-05-07T08:07:33.548Z,43
2023-05-07T08:08:35.329Z,42.6429
2023-05-07T08:09:36.134Z,42.7857
2023-05-07T08:10:36.372Z,43.1429
2023-05-07T08:11:36.029Z,43.5714
2023-05-07T08:12:37.366Z,42.4286
2023-05-07T08:13:37.013Z,41.0714
2023-05-07T08:14:38.740Z,41
2023-05-07T08:15:40.491Z,40.2857
2023-05-07T08:16:40.864Z,39.6429
2023-05-07T08:17:42.062Z,38.8571
2023-05-07T08:18:44.908Z,39.4286
2023-05-07T08:19:45.185Z,38.2857
2023-05-07T08:20:45.606Z,37.9286
2023-05-07T08:21:46.191Z,38.7857
2023-05-07T08:22:46.755Z,38.7857
2023-05-07T08:23:47.155Z,38
2023-05-07T08:24:47.673Z,39
2023-05-07T08:25:50.137Z,39.5
2023-05-07T08:26:50.620Z,38.5714
2023-05-07T08:27:50.139Z,39
2023-05-07T08:28:51.029Z,39.1429
2023-05-07T08:29:52.290Z,39.2143
2023-05-07T08:30:52.492Z,39.1429
2023-05-07T08:31:55.445Z,39.3571
2023-05-07T08:32:55.758Z,40.1429
2023-05-07T08:33:55.838Z,40.0714
2023-05-07T08:34:57.748Z,40.1429
2023-05-07T08:35:58.984Z,41.5
2023-05-07T08:36:59.762Z,41.4286
2023-05-07T08:38:03.427Z,40.7143
2023-05-07T08:39:03.620Z,41.2143
2023-05-07T08:40:06.049Z,42.2857
2023-05-07T08:41:05.391Z,42.2143
2023-05-07T08:42:06.416Z,42.7857
2023-05-07T08:43:07.060Z,43.3571
2023-05-07T08:44:07.278Z,43
2023-05-07T08:45:08.522Z,43.2143
2023-05-07T08:46:10.476Z,42.8571
2023-05-07T08:47:09.388Z,42.9286
2023-05-07T08:48:10.544Z,42.7857
2023-05-07T08:49:13.169Z,42.8571
2023-05-07T08:50:15.955Z,43.1429
2023-05-07T08:51:16.113Z,42.9286
2023-05-07T08:52:15.589Z,43.5
2023-05-07T08:53:16.746Z,43
2023-05-07T08:54:17.537Z,43.5714
2023-05-07T08:55:17.656Z,44.0714
2023-05-07T08:56:17.185Z,44.5
2023-05-07T08:57:19.046Z,45.0714
2023-05-07T08:58:20.029Z,45.8571
2023-05-07T08:59:21.055Z,46.3571
2023-05-07T09:00:20.494Z,45.2143
2023-05-07T09:01:23.837Z,45.0714
2023-05-07T09:02:26.625Z,45.3571
2023-05-07T09:03:28.133Z,46.9286
2023-05-07T09:04:30.073Z,46.7143
2023-05-07T09:05:32.469Z,46.4286
2023-05-07T09:06:33.692Z,47
2023-05-07T09:07:34.623Z,45.7857
2023-05-07T09:08:36.499Z,45.1429
2023-05-07T09:09:38.721Z,45.5
2023-05-07T09:10:39.916Z,45.7857
2023-05-07T09:11:39.130Z,46.1429
2023-05-07T09:12:41.038Z,46.7857
2023-05-07T09:13:41.438Z,46.0714
2023-05-07T09:14:43.218Z,46.2143
2023-05-07T09:15:43.152Z,46.5
2023-05-07T09:16:44.787Z,46.2857
2023-05-07T09:17:44.825Z,47.2143
2023-05-07T09:18:46.045Z,47.7143
2023-05-07T09:19:47.906Z,46.0714
2023-05-07T09:20:50.646Z,46.0714
2023-05-07T09:21:53.789Z,46.2143
2023-05-07T09:22:55.057Z,46.5
2023-05-07T09:23:57.856Z,46.2857
2023-05-07T09:24:58.154Z,45.8571
2023-05-07T09:25:58.523Z,46.6429
2023-05-07T09:26:59.634Z,46.5714
2023-05-07T09:28:01.481Z,46.2857
2023-05-07T09:29:02.369Z,46.2857
2023-05-07T09:30:03.292Z,46.5714
2023-05-07T09:31:06.658Z,47.0714
2023-05-07T09:32:09.510Z,47.2143
2023-05-07T09:33:10.822Z,46.2857
2023-05-07T09:34:09.998Z,46.7143
2023-05-07T09:35:11.298Z,46.7857
2023-05-07T09:36:12.471Z,45.9286
2023-05-07T09:37:13.328Z,46.3571
2023-05-07T09:38:15.803Z,46.9286
2023-05-07T09:39:14.920Z,48.2143
2023-05-07T09:40:17.327Z,48
2023-05-07T09:41:17.184Z,47.2857
2023-05-07T09:42:18.093Z,46.6429
2023-05-07T09:43:21.249Z,47.4286
2023-05-07T09:44:24.264Z,47.9286
2023-05-07T09:45:24.809Z,48.5
2023-05-07T09:46:27.537Z,46.9286
2023-05-07T09:47:27.656Z,46.5714
2023-05-07T09:48:31.060Z,46.0714
2023-05-07T09:49:34.347Z,45.6429
2023-05-07T09:50:34.716Z,46.2143
2023-05-07T09:51:34.896Z,47.0714
2023-05-07T09:52:38.298Z,46.9286
2023-05-07T09:53:40.213Z,46.9286
2023-05-07T09:54:42.945Z,45.1429
2023-05-07T09:55:44.293Z,45.4286
2023-05-07T09:56:47.284Z,45.2857
2023-05-07T09:57:49.221Z,46.2143
2023-05-07T09:58:50.388Z,46.1429
2023-05-07T09:59:53.149Z,45
2023-05-07T10:00:55.956Z,44.9286
2023-05-07T10:01:57.938Z,45.3571
2023-05-07T10:02:58.979Z,46.5
2023-05-07T10:04:02.506Z,46.0714
2023-05-07T10:05:03.662Z,46.2857
2023-05-07T10:06:06.377Z,44.9286
2023-05-07T10:07:09.206Z,44.9286
2023-05-07T10:08:09.035Z,45.6429
2023-05-07T10:09:11.097Z,45.5714
2023-05-07T10:10:12.018Z,46
2023-05-07T10:11:13.518Z,45.6429
2023-05-07T10:12:15.570Z,45.7143
2023-05-07T10:13:17.964Z,46.4286
2023-05-07T10:14:20.292Z,46.0714
2023-05-07T10:15:21.334Z,45.3571
2023-05-07T10:16:22.562Z,44.9286
2023-05-07T10:17:25.604Z,44.9286
2023-05-07T10:18:27.409Z,45
2023-05-07T10:19:29.514Z,44.7143
2023-05-07T10:20:29.776Z,45.1429
2023-05-07T10:21:31.499Z,44.8571
2023-05-07T10:22:34.380Z,45
2023-05-07T10:23:35.998Z,44.5714
2023-05-07T10:24:37.437Z,45.1429
2023-05-07T10:25:39.852Z,46.5
2023-05-07T10:26:40.748Z,45.0714
2023-05-07T10:27:41.346Z,46.0714
2023-05-07T10:28:44.197Z,45.5
2023-05-07T10:29:44.811Z,46.2857
2023-05-07T10:30:47.289Z,44.8571
2023-05-07T10:31:49.165Z,44.8571
2023-05-07T10:32:51.198Z,45.1429
2023-05-07T10:33:52.152Z,45
2023-05-07T10:34:54.032Z,45.5
2023-05-07T10:35:56.852Z,45.2143
2023-05-07T10:36:57.825Z,45
2023-05-07T10:38:01.308Z,44.6429
2023-05-07T10:39:02.234Z,45
2023-05-07T10:40:03.042Z,45.6429
2023-05-07T10:41:05.928Z,46
2023-05-07T10:42:06.908Z,46.0714
2023-05-07T10:43:10.848Z,46.2857
2023-05-07T10:44:12.568Z,46.4286
2023-05-07T10:45:12.846Z,46
2023-05-07T10:46:15.537Z,46.2143
2023-05-07T10:47:17.648Z,45.3571
2023-05-07T10:48:28.954Z,45.8571
2023-05-07T10:49:23.354Z,45.2143
2023-05-07T10:50:25.006Z,44.5714
2023-05-07T10:51:26.065Z,44.5714
2023-05-07T10:52:27.008Z,45.4286
2023-05-07T10:53:29.788Z,45.6429
2023-05-07T10:54:30.599Z,44.5714
2023-05-07T10:55:32.180Z,45.2857
2023-05-07T10:56:35.659Z,46
2023-05-07T10:57:36.841Z,45.7857
2023-05-07T10:58:37.517Z,45.7857
2023-05-07T10:59:40.234Z,45.2143
2023-05-07T11:00:41.186Z,45.5
2023-05-07T11:01:44.042Z,45.2857
2023-05-07T11:02:45.887Z,44.7143
2023-05-07T11:03:46.921Z,44.2857
2023-05-07T11:04:49.408Z,44.3571
2023-05-07T11:05:51.633Z,45.0714
2023-05-07T11:06:53.437Z,44.2857
2023-05-07T11:07:56.811Z,44.2857
2023-05-07T11:08:57.690Z,44.5
2023-05-07T11:10:01.488Z,44.5714
2023-05-07T11:11:01.509Z,45.2143
2023-05-07T11:12:03.424Z,45.1429
2023-05-07T11:13:04.143Z,45.6429
2023-05-07T11:14:05.458Z,44.2857
2023-05-07T11:15:06.043Z,44.5
2023-05-07T11:16:06.313Z,44.2143
2023-05-07T11:17:06.614Z,43.2857
2023-05-07T11:18:08.422Z,43.7857
2023-05-07T11:19:09.230Z,43.8571
2023-05-07T11:20:09.318Z,43.5
2023-05-07T11:21:09.749Z,43.6429
2023-05-07T11:22:11.650Z,43
2023-05-07T11:23:12.269Z,43.8571
2023-05-07T11:24:15.527Z,43.8571
2023-05-07T11:25:15.546Z,43.7857
2023-05-07T11:26:16.805Z,43.5714
2023-05-07T11:27:18.949Z,43.9286
2023-05-07T11:28:19.885Z,43.7857
2023-05-07T11:29:22.238Z,43.9286
2023-05-07T11:30:20.896Z,44
2023-05-07T11:31:23.428Z,44.7143
2023-05-07T11:32:26.106Z,44.3571
2023-05-07T11:33:29.147Z,44.2143
2023-05-07T11:34:28.410Z,44.1429
2023-05-07T11:35:28.575Z,43.7857
2023-05-07T11:36:30.471Z,44.2857
2023-05-07T11:37:32.264Z,44.4286
2023-05-07T11:38:33.350Z,44.3571
2023-05-07T11:39:33.964Z,44.8571
2023-05-07T11:40:34.964Z,45.7857
2023-05-07T11:41:36.503Z,45.5714
2023-05-07T11:42:38.954Z,46.7143
2023-05-07T11:43:40.471Z,45.8571
2023-05-07T11:44:41.281Z,44.8571
2023-05-07T11:45:41.490Z,43.8571
2023-05-07T11:46:43.307Z,44.5714
2023-05-07T11:47:42.686Z,44.7857
2023-05-07T11:48:43.475Z,43.6429
2023-05-07T11:49:44.740Z,44
2023-05-07T11:50:44.487Z,44.0714
2023-05-07T11:51:46.514Z,44.7143
2023-05-07T11:52:46.277Z,45
2023-05-07T11:53:48.136Z,44
2023-05-07T11:54:48.526Z,43.5
2023-05-07T11:55:50.786Z,44.0714
2023-05-07T11:56:52.567Z,44.7143
2023-05-07T11:57:52.978Z,44.0714
2023-05-07T11:58:53.993Z,44.2857
2023-05-07T11:59:56.863Z,45
2023-05-07T12:00:58.421Z,44.2857
2023-05-07T12:02:00.636Z,44.7143
2023-05-07T12:03:01.296Z,45.1429
2023-05-07T12:04:01.055Z,44.7143
2023-05-07T12:05:02.801Z,44.6429
2023-05-07T12:06:03.149Z,43.5
2023-05-07T12:07:05.818Z,43.6429
2023-05-07T12:08:05.924Z,44.5
2023-05-07T12:09:07.478Z,44.7857
2023-05-07T12:10:07.775Z,45.5714
2023-05-07T12:11:09.880Z,45.2857
2023-05-07T12:12:10.352Z,44.6429
2023-05-07T12:13:11.562Z,44.7143
2023-05-07T12:14:13.536Z,45
2023-05-07T12:15:14.580Z,45.1429
2023-05-07T12:16:16.305Z,47.3571
2023-05-07T12:17:18.850Z,47.3571
2023-05-07T12:18:22.060Z,47.0714
2023-05-07T12:19:24.492Z,45.6429
2023-05-07T12:20:24.493Z,45.6429
2023-05-07T12:21:25.092Z,44.2857
2023-05-07T12:22:24.685Z,44.7857
2023-05-07T12:23:27.615Z,46.0714
2023-05-07T12:24:27.737Z,44.4286
2023-05-07T12:25:30.008Z,42.8571
2023-05-07T12:26:28.752Z,42.5714
2023-05-07T12:27:31.360Z,43.3571
2023-05-07T12:28:32.183Z,43.7857
2023-05-07T12:29:31.474Z,42.8571
2023-05-07T12:30:34.307Z,44.2143
2023-05-07T12:31:36.477Z,43
2023-05-07T12:32:39.011Z,41.4286
2023-05-07T12:33:38.665Z,43.7857
2023-05-07T12:34:40.751Z,43.3571